createdAt,value
2022-10-05T00:00:46.125Z,76.84
2022-10-05T00:01:53.777Z,76.64
2022-10-05T00:02:59.664Z,76.80
2022-10-05T00:04:23.717Z,76.17
2022-10-05T00:05:36.838Z,75.56
2022-10-05T00:06:47.378Z,75.34
2022-10-05T00:07:49.958Z,75.22
2022-10-05T00:09:00.615Z,75.22
2022-10-05T00:10:16.596Z,75.45
2022-10-05T00:11:18.958Z,75.66
2022-10-05T00:12:25.494Z,75.73
2022-10-05T00:13:33.001Z,76.09
2022-10-05T00:14:38.841Z,76.18
2022-10-05T00:15:40.893Z,75.45
2022-10-05T00:16:43.289Z,75.82
2022-10-05T00:17:48.364Z,75.06
2022-10-05T00:18:53.722Z,74.62
2022-10-05T00:19:56.283Z,74.54
2022-10-05T00:21:09.310Z,74.81
2022-10-05T00:22:21.179Z,74.86
2022-10-05T00:23:34.822Z,74.92
2022-10-05T00:24:39.831Z,75.05
2022-10-05T00:25:41.663Z,75.47
2022-10-05T00:26:43.959Z,75.22
2022-10-05T00:27:54.039Z,75.58
2022-10-05T00:28:58.612Z,75.77
2022-10-05T00:30:10.758Z,75.88
2022-10-05T00:31:30.599Z,76.07
2022-10-05T00:32:35.686Z,76.16
2022-10-05T00:33:42.964Z,76.83
2022-10-05T00:34:48.416Z,76.32
2022-10-05T00:35:50.536Z,76.26
2022-10-05T00:36:52.924Z,77.08
2022-10-05T00:38:00.501Z,77.01
2022-10-05T00:39:05.117Z,77.13
2022-10-05T00:40:30.724Z,77.60
2022-10-05T00:41:56.645Z,77.92
2022-10-05T00:43:10.340Z,77.92
2022-10-05T00:44:19.711Z,77.53
2022-10-05T00:45:43.988Z,77.20
2022-10-05T00:47:06.667Z,77.30
2022-10-05T00:48:28.854Z,77.13
2022-10-05T00:50:02.294Z,76.44
2022-10-05T00:51:06.690Z,76.53
2022-10-05T00:52:32.278Z,77.37
2022-10-05T00:53:39.893Z,77.17
2022-10-05T00:54:47.477Z,77.50
2022-10-05T00:56:01.972Z,77.21
2022-10-05T00:57:22.239Z,77.46
2022-10-05T00:58:48.189Z,76.98
2022-10-05T01:00:15.894Z,76.41
2022-10-05T01:01:22.445Z,76.39
2022-10-05T01:03:03.374Z,76.71
2022-10-05T01:04:25.636Z,77.35
2022-10-05T01:06:00.746Z,78.33
2022-10-05T01:07:40.427Z,77.35
2022-10-05T01:09:08.944Z,77.44
2022-10-05T01:10:18.918Z,76.66
2022-10-05T01:11:20.295Z,75.80
2022-10-05T01:12:33.641Z,75.84
2022-10-05T01:13:46.171Z,74.92
2022-10-05T01:15:20.456Z,74.42
2022-10-05T01:16:48.305Z,75.09
2022-10-05T01:17:57.491Z,75.16
2022-10-05T01:19:19.079Z,75.13
2022-10-05T01:20:29.452Z,75.25
2022-10-05T01:21:37.890Z,75.52
2022-10-05T01:23:07.042Z,76.32
2022-10-05T01:24:26.630Z,76.50
2022-10-05T01:26:11.940Z,76.86
2022-10-05T01:27:19.675Z,76.92
2022-10-05T01:28:43.904Z,76.60
2022-10-05T01:30:04.073Z,77.20
2022-10-05T01:31:43.443Z,77.07
2022-10-05T01:33:02.437Z,77.63
2022-10-05T01:34:13.105Z,77.11
2022-10-05T01:35:23.535Z,75.84
2022-10-05T01:36:49.998Z,75.64
2022-10-05T01:38:08.312Z,74.45
2022-10-05T01:39:17.518Z,75.63
2022-10-05T01:40:25.001Z,76.39
2022-10-05T01:41:32.439Z,76.18
2022-10-05T01:42:54.655Z,76.35
2022-10-05T01:44:28.792Z,76.59
2022-10-05T01:45:33.451Z,76.69
2022-10-05T01:46:52.583Z,77.05
2022-10-05T01:48:03.553Z,76.85
2022-10-05T01:49:40.498Z,77.10
2022-10-05T01:51:04.835Z,76.98
2022-10-05T01:52:12.663Z,76.82
2022-10-05T01:53:33.111Z,76.70
2022-10-05T01:54:55.395Z,77.13
2022-10-05T01:56:15.622Z,75.90
2022-10-05T01:57:29.508Z,76.15
2022-10-05T01:58:50.656Z,76.44
2022-10-05T02:00:04.555Z,76.65
2022-10-05T02:01:24.917Z,76.43
2022-10-05T02:02:30.871Z,76.83
2022-10-05T02:03:43.216Z,76.78
2022-10-05T02:05:04.675Z,76.75
2022-10-05T02:06:21.353Z,76.46
2022-10-05T02:07:49.651Z,76.29
2022-10-05T02:08:58.843Z,76.68
2022-10-05T02:10:13.371Z,76.26
2022-10-05T02:11:15.183Z,76.36
2022-10-05T02:12:22.596Z,75.54
2022-10-05T02:13:33.868Z,75.01
2022-10-05T02:14:41.980Z,75.65
2022-10-05T02:15:54.949Z,76.07
2022-10-05T02:17:01.827Z,77.01
2022-10-05T02:18:11.268Z,76.99
2022-10-05T02:19:37.791Z,76.08
2022-10-05T02:20:42.274Z,74.59
2022-10-05T02:21:47.228Z,74.36
2022-10-05T02:22:53.520Z,73.71
2022-10-05T02:24:00.944Z,74.15
2022-10-05T02:25:15.095Z,75.01
2022-10-05T02:26:17.611Z,75.35
2022-10-05T02:27:24.683Z,74.56
2022-10-05T02:28:38.329Z,75.98
2022-10-05T02:29:45.533Z,76.56
2022-10-05T02:31:00.295Z,76.34
2022-10-05T02:32:10.190Z,75.48
2022-10-05T02:33:20.107Z,74.79
2022-10-05T02:34:26.472Z,74.45
2022-10-05T02:35:28.015Z,73.48
2022-10-05T02:36:35.895Z,74.14
2022-10-05T02:37:54.711Z,73.81
2022-10-05T02:38:59.859Z,75.00
2022-10-05T02:40:24.044Z,74.63
2022-10-05T02:41:49.726Z,75.27
2022-10-05T02:43:03.620Z,76.13
2022-10-05T02:44:08.003Z,75.81
2022-10-05T02:45:27.571Z,75.51
2022-10-05T02:46:57.254Z,75.80
2022-10-05T02:48:45.067Z,76.06
2022-10-05T02:49:56.883Z,77.47
2022-10-05T02:51:04.066Z,77.32
2022-10-05T02:52:23.855Z,76.99
2022-10-05T02:53:41.244Z,77.57
2022-10-05T02:54:51.690Z,76.89
2022-10-05T02:56:22.444Z,77.00
2022-10-05T02:57:34.584Z,76.86
2022-10-05T02:58:51.751Z,77.14
2022-10-05T03:00:25.350Z,77.16
2022-10-05T03:01:34.257Z,77.26
2022-10-05T03:02:50.009Z,77.11
2022-10-05T03:03:59.259Z,76.91
2022-10-05T03:05:15.754Z,76.12
2022-10-05T03:06:27.274Z,75.93
2022-10-05T03:07:55.353Z,74.48
2022-10-05T03:09:07.737Z,73.62
2022-10-05T03:10:24.963Z,73.63
2022-10-05T03:11:41.707Z,74.48
2022-10-05T03:13:02.567Z,73.80
2022-10-05T03:14:23.260Z,74.29
2022-10-05T03:15:39.747Z,74.73
2022-10-05T03:16:47.329Z,75.09
2022-10-05T03:18:08.246Z,74.94
2022-10-05T03:19:33.766Z,74.26
2022-10-05T03:20:41.252Z,74.92
2022-10-05T03:21:58.992Z,74.88
2022-10-05T03:23:02.577Z,75.25
2022-10-05T03:24:45.883Z,75.28
2022-10-05T03:25:47.277Z,75.49
2022-10-05T03:27:29.035Z,76.55
2022-10-05T03:28:39.023Z,76.17
2022-10-05T03:29:47.534Z,76.50
2022-10-05T03:31:04.663Z,76.64
2022-10-05T03:32:24.535Z,76.48
2022-10-05T03:33:56.983Z,76.60
2022-10-05T03:35:16.925Z,75.80
2022-10-05T03:36:27.514Z,75.12
2022-10-05T03:37:39.625Z,75.08
2022-10-05T03:39:00.157Z,74.94
2022-10-05T03:40:22.151Z,75.08
2022-10-05T03:41:35.868Z,74.77
2022-10-05T03:43:06.653Z,74.70
2022-10-05T03:44:47.104Z,75.22
2022-10-05T03:46:13.649Z,75.56
2022-10-05T03:47:32.708Z,76.96
2022-10-05T03:49:00.152Z,77.11
2022-10-05T03:50:01.536Z,76.64
2022-10-05T03:51:21.038Z,76.89
2022-10-05T03:52:36.703Z,76.71
2022-10-05T03:53:51.053Z,77.03
2022-10-05T03:54:59.813Z,75.68
2022-10-05T03:56:11.813Z,74.83
2022-10-05T03:57:31.891Z,74.72
2022-10-05T03:58:46.077Z,74.61
2022-10-05T04:00:13.633Z,74.59
2022-10-05T04:01:17.433Z,74.66
2022-10-05T04:02:26.861Z,74.90
2022-10-05T04:03:52.657Z,74.99
2022-10-05T04:05:04.418Z,75.81
2022-10-05T04:06:16.052Z,75.98
2022-10-05T04:07:48.860Z,76.52
2022-10-05T04:09:03.342Z,76.38
2022-10-05T04:10:12.932Z,76.93
2022-10-05T04:11:26.395Z,75.72
2022-10-05T04:12:44.443Z,76.09
2022-10-05T04:13:54.536Z,75.16
2022-10-05T04:15:24.312Z,75.33
2022-10-05T04:16:30.946Z,75.56
2022-10-05T04:17:56.947Z,75.02
2022-10-05T04:19:09.766Z,75.27
2022-10-05T04:20:29.195Z,74.88
2022-10-05T04:21:38.264Z,75.56
2022-10-05T04:22:49.162Z,76.28
2022-10-05T04:24:09.344Z,76.42
2022-10-05T04:25:17.600Z,77.22
2022-10-05T04:26:29.775Z,77.06
2022-10-05T04:27:39.531Z,77.03
2022-10-05T04:28:48.757Z,77.21
2022-10-05T04:30:11.596Z,76.75
2022-10-05T04:31:34.906Z,77.01
2022-10-05T04:32:43.266Z,76.58
2022-10-05T04:33:53.221Z,76.36
2022-10-05T04:35:24.548Z,76.64
2022-10-05T04:36:40.808Z,75.93
2022-10-05T04:37:48.712Z,77.24
2022-10-05T04:39:11.408Z,76.65
2022-10-05T04:40:18.915Z,76.67
2022-10-05T04:41:53.369Z,76.42
2022-10-05T04:43:13.302Z,76.83
2022-10-05T04:44:20.702Z,77.38
2022-10-05T04:45:37.237Z,77.09
2022-10-05T04:46:48.873Z,77.28
2022-10-05T04:48:25.114Z,77.64
2022-10-05T04:49:52.283Z,77.31
2022-10-05T04:51:11.723Z,77.95
2022-10-05T04:52:36.308Z,77.28
2022-10-05T04:53:58.943Z,77.15
2022-10-05T04:55:18.565Z,76.96
2022-10-05T04:56:30.702Z,77.15
2022-10-05T04:57:44.650Z,75.75
2022-10-05T04:59:02.564Z,75.50
2022-10-05T05:00:22.943Z,75.56
2022-10-05T05:01:37.757Z,75.24
2022-10-05T05:03:03.312Z,75.03
2022-10-05T05:04:29.135Z,75.09
2022-10-05T05:06:16.458Z,74.51
2022-10-05T05:07:52.806Z,74.41
2022-10-05T05:09:13.011Z,74.19
2022-10-05T05:10:26.432Z,73.89
2022-10-05T05:11:58.604Z,74.77
2022-10-05T05:13:22.487Z,75.04
2022-10-05T05:14:53.780Z,76.53
2022-10-05T05:16:05.623Z,76.51
2022-10-05T05:17:32.468Z,76.56
2022-10-05T05:18:33.807Z,76.93
2022-10-05T05:19:51.416Z,76.47
2022-10-05T05:21:32.874Z,76.16
2022-10-05T05:22:56.106Z,75.49
2022-10-05T05:24:28.030Z,75.74
2022-10-05T05:25:48.129Z,75.84
2022-10-05T05:26:57.236Z,75.52
2022-10-05T05:28:03.036Z,75.01
2022-10-05T05:29:18.774Z,75.18
2022-10-05T05:30:21.923Z,76.04
2022-10-05T05:31:44.861Z,76.66
2022-10-05T05:32:58.903Z,77.11
2022-10-05T05:34:10.780Z,76.51
2022-10-05T05:35:27.405Z,75.64
2022-10-05T05:36:49.963Z,75.59
2022-10-05T05:38:09.421Z,76.07
2022-10-05T05:39:39.836Z,77.11
2022-10-05T05:40:54.699Z,77.23
2022-10-05T05:42:00.847Z,76.92
2022-10-05T05:43:12.444Z,77.57
2022-10-05T05:44:25.109Z,77.06
2022-10-05T05:45:49.561Z,75.81
2022-10-05T05:47:03.996Z,75.44
2022-10-05T05:48:20.148Z,75.72
2022-10-05T05:49:49.305Z,76.46
2022-10-05T05:50:57.168Z,76.36
2022-10-05T05:52:04.620Z,76.51
2022-10-05T05:53:25.440Z,77.33
2022-10-05T05:54:50.092Z,76.32
2022-10-05T05:56:01.189Z,75.58
2022-10-05T05:57:19.912Z,75.08
2022-10-05T05:58:54.684Z,74.93
2022-10-05T06:00:17.633Z,74.78
2022-10-05T06:01:43.426Z,74.05
2022-10-05T06:03:32.072Z,73.10
2022-10-05T06:04:41.347Z,73.32
2022-10-05T06:05:54.401Z,73.17
2022-10-05T06:07:01.046Z,73.03
2022-10-05T06:08:11.117Z,73.40
2022-10-05T06:09:18.421Z,73.00
2022-10-05T06:10:41.767Z,73.42
2022-10-05T06:11:47.631Z,73.42
2022-10-05T06:12:52.849Z,73.06
2022-10-05T06:13:58.589Z,73.34
2022-10-05T06:15:17.063Z,73.29
2022-10-05T06:16:22.037Z,73.13
2022-10-05T06:17:34.217Z,72.99
2022-10-05T06:18:40.249Z,73.40
2022-10-05T06:19:43.946Z,73.29
2022-10-05T06:21:22.530Z,73.64
2022-10-05T06:22:27.964Z,73.82
2022-10-05T06:23:39.074Z,74.75
2022-10-05T06:25:09.769Z,75.08
2022-10-05T06:26:24.450Z,75.63
2022-10-05T06:27:39.134Z,75.57
2022-10-05T06:28:41.807Z,76.36
2022-10-05T06:30:01.335Z,76.26
2022-10-05T06:31:38.214Z,76.68
2022-10-05T06:32:58.157Z,76.67
2022-10-05T06:34:40.807Z,76.62
2022-10-05T06:35:53.683Z,77.00
2022-10-05T06:37:05.788Z,76.62
2022-10-05T06:38:13.604Z,76.31
2022-10-05T06:39:47.950Z,76.32
2022-10-05T06:41:14.163Z,75.97
2022-10-05T06:43:04.471Z,76.31
2022-10-05T06:44:27.786Z,76.26
2022-10-05T06:45:44.558Z,76.65
2022-10-05T06:47:10.642Z,76.78
2022-10-05T06:48:24.503Z,76.57
2022-10-05T06:49:48.767Z,76.92
2022-10-05T06:51:00.103Z,77.07
2022-10-05T06:52:35.519Z,77.43
2022-10-05T06:53:57.648Z,77.76
2022-10-05T06:55:20.372Z,77.70
2022-10-05T06:56:46.557Z,78.33
2022-10-05T06:58:36.673Z,78.22
2022-10-05T07:00:07.422Z,78.49
2022-10-05T07:01:24.910Z,78.40
2022-10-05T07:02:32.667Z,78.78
2022-10-05T07:03:47.359Z,78.41
2022-10-05T07:04:54.475Z,77.95
2022-10-05T07:06:15.355Z,78.88
2022-10-05T07:07:35.356Z,78.97
2022-10-05T07:08:49.034Z,80.02
2022-10-05T07:10:04.814Z,79.56
2022-10-05T07:11:29.498Z,79.96
2022-10-05T07:12:44.116Z,80.42
2022-10-05T07:13:48.568Z,80.11
2022-10-05T07:14:55.908Z,80.72
2022-10-05T07:16:17.585Z,80.34
2022-10-05T07:17:55.560Z,80.51
2022-10-05T07:19:18.703Z,81.10
2022-10-05T07:20:23.076Z,80.05
2022-10-05T07:21:46.664Z,81.33
2022-10-05T07:23:20.114Z,82.10
2022-10-05T07:24:38.901Z,82.45
2022-10-05T07:26:00.665Z,82.34
2022-10-05T07:27:02.064Z,81.50
2022-10-05T07:28:09.368Z,81.84
2022-10-05T07:29:23.617Z,80.66
2022-10-05T07:30:25.195Z,79.59
2022-10-05T07:31:36.365Z,77.05
2022-10-05T07:33:05.621Z,72.28
2022-10-05T07:34:15.720Z,68.97
2022-10-05T07:36:05.128Z,68.06
2022-10-05T07:37:37.627Z,67.17
2022-10-05T07:38:54.739Z,66.29
2022-10-05T07:40:15.145Z,64.51
2022-10-05T07:41:40.255Z,64.63
2022-10-05T07:42:52.272Z,65.78
2022-10-05T07:44:13.361Z,69.37
2022-10-05T07:45:28.716Z,70.11
2022-10-05T07:46:49.705Z,71.22
2022-10-05T07:47:55.731Z,71.96
2022-10-05T07:49:03.432Z,73.17
2022-10-05T07:50:20.426Z,73.36
2022-10-05T07:51:31.919Z,74.09
2022-10-05T07:52:46.205Z,74.43
2022-10-05T07:53:59.307Z,73.26
2022-10-05T07:55:17.049Z,73.25
2022-10-05T07:56:34.276Z,73.26
2022-10-05T07:58:15.922Z,72.21
2022-10-05T07:59:57.055Z,72.89
2022-10-05T08:01:27.914Z,73.45
2022-10-05T08:02:36.117Z,73.72
2022-10-05T08:03:49.927Z,74.06
2022-10-05T08:05:10.810Z,74.47
2022-10-05T08:06:29.608Z,75.03
2022-10-05T08:07:34.797Z,75.93
2022-10-05T08:08:41.055Z,76.33
2022-10-05T08:09:52.204Z,76.49
2022-10-05T08:11:02.334Z,76.24
2022-10-05T08:12:50.948Z,75.22
2022-10-05T08:14:05.499Z,75.77
2022-10-05T08:15:15.098Z,76.18
2022-10-05T08:16:17.656Z,76.38
2022-10-05T08:17:27.867Z,76.43
2022-10-05T08:19:00.054Z,76.94
2022-10-05T08:20:34.995Z,76.47
2022-10-05T08:21:42.313Z,76.35
2022-10-05T08:22:50.591Z,76.80
2022-10-05T08:24:04.422Z,76.75
2022-10-05T08:25:15.299Z,75.96
2022-10-05T08:26:28.900Z,76.45
2022-10-05T08:27:44.193Z,75.66
2022-10-05T08:29:32.801Z,76.10
2022-10-05T08:30:48.509Z,75.92
2022-10-05T08:31:55.975Z,76.07
2022-10-05T08:33:12.605Z,76.51
2022-10-05T08:34:23.418Z,75.92
2022-10-05T08:35:51.452Z,75.47
2022-10-05T08:36:59.397Z,74.96
2022-10-05T08:38:08.581Z,75.39
2022-10-05T08:39:18.460Z,75.26
2022-10-05T08:40:57.321Z,74.22
2022-10-05T08:42:32.427Z,72.91
2022-10-05T08:43:54.848Z,74.30
2022-10-05T08:45:24.184Z,74.21
2022-10-05T08:46:44.288Z,74.65
2022-10-05T08:48:16.939Z,75.10
2022-10-05T08:49:55.711Z,75.08
2022-10-05T08:51:18.908Z,73.93
2022-10-05T08:52:29.054Z,72.95
2022-10-05T08:53:36.380Z,72.76
2022-10-05T08:54:47.426Z,73.02
2022-10-05T08:55:56.170Z,73.02
2022-10-05T08:57:12.837Z,72.85
2022-10-05T08:58:36.231Z,72.39
2022-10-05T08:59:41.089Z,71.92
2022-10-05T09:00:49.090Z,71.43
2022-10-05T09:02:24.912Z,73.23
2022-10-05T09:03:41.517Z,73.19
2022-10-05T09:05:13.514Z,73.17
2022-10-05T09:06:57.052Z,71.64
2022-10-05T09:08:32.470Z,71.48
2022-10-05T09:09:36.824Z,71.42
2022-10-05T09:10:58.621Z,71.93
2022-10-05T09:12:18.396Z,70.65
2022-10-05T09:13:38.626Z,71.25
2022-10-05T09:15:26.013Z,70.99
2022-10-05T09:16:34.158Z,71.61
2022-10-05T09:18:13.486Z,72.15
2022-10-05T09:19:40.008Z,71.90
2022-10-05T09:20:59.039Z,71.58
2022-10-05T09:22:13.618Z,71.20
2022-10-05T09:23:21.060Z,71.15
2022-10-05T09:24:28.586Z,71.35
2022-10-05T09:25:56.195Z,71.36
2022-10-05T09:27:17.199Z,71.45
2022-10-05T09:28:58.205Z,70.71
2022-10-05T09:30:14.747Z,70.63
2022-10-05T09:31:51.196Z,71.91
2022-10-05T09:33:17.705Z,71.80
2022-10-05T09:34:47.762Z,72.15
2022-10-05T09:36:27.415Z,72.06
2022-10-05T09:37:38.459Z,71.25
2022-10-05T09:39:11.092Z,70.54
2022-10-05T09:40:31.391Z,70.04
2022-10-05T09:41:35.783Z,71.26
2022-10-05T09:43:10.561Z,71.44
2022-10-05T09:44:49.438Z,71.38
2022-10-05T09:45:56.807Z,70.63
2022-10-05T09:47:01.337Z,71.53
2022-10-05T09:48:27.227Z,71.85
2022-10-05T09:50:26.136Z,72.10
2022-10-05T09:51:46.394Z,71.76
2022-10-05T09:53:00.866Z,71.24
2022-10-05T09:54:05.404Z,71.81
2022-10-05T09:55:07.115Z,71.78
2022-10-05T09:56:14.348Z,71.48
2022-10-05T09:57:30.950Z,71.18
2022-10-05T09:58:57.562Z,71.62
2022-10-05T10:00:09.627Z,71.16
2022-10-05T10:01:36.426Z,71.15
2022-10-05T10:03:12.179Z,71.33
2022-10-05T10:04:45.922Z,70.21
2022-10-05T10:06:10.406Z,69.98
2022-10-05T10:07:33.289Z,70.10
2022-10-05T10:08:53.405Z,69.83
2022-10-05T10:10:29.378Z,69.54
2022-10-05T10:12:09.089Z,70.70
2022-10-05T10:13:16.860Z,69.57
2022-10-05T10:14:21.810Z,68.79
2022-10-05T10:15:41.998Z,69.25
2022-10-05T10:17:06.895Z,68.97
2022-10-05T10:18:37.825Z,69.42
2022-10-05T10:20:01.630Z,69.43
2022-10-05T10:21:34.562Z,69.65
2022-10-05T10:23:11.817Z,70.25
2022-10-05T10:24:44.695Z,68.83
2022-10-05T10:26:11.750Z,68.78
2022-10-05T10:28:06.805Z,69.52
2022-10-05T10:29:43.571Z,68.17
2022-10-05T10:31:30.695Z,68.15
2022-10-05T10:32:59.980Z,68.07
2022-10-05T10:34:45.059Z,69.00
2022-10-05T10:35:55.467Z,69.38
2022-10-05T10:37:16.301Z,69.02
2022-10-05T10:38:35.775Z,68.68
2022-10-05T10:39:55.491Z,68.66
2022-10-05T10:41:18.992Z,69.17
2022-10-05T10:42:56.294Z,69.26
2022-10-05T10:43:58.012Z,68.83
2022-10-05T10:45:25.721Z,69.47
2022-10-05T10:46:53.876Z,69.84
2022-10-05T10:48:00.269Z,69.67
2022-10-05T10:49:16.223Z,69.80
2022-10-05T10:50:33.230Z,68.63
2022-10-05T10:51:56.188Z,68.27
2022-10-05T10:53:28.613Z,68.43
2022-10-05T10:54:48.766Z,69.03
2022-10-05T10:56:12.771Z,68.59
2022-10-05T10:57:51.160Z,68.26
2022-10-05T10:59:35.594Z,68.60
2022-10-05T11:00:47.243Z,68.24
2022-10-05T11:02:22.890Z,67.04
2022-10-05T11:03:56.921Z,66.28
2022-10-05T11:05:23.195Z,66.79
2022-10-05T11:06:46.677Z,65.54
2022-10-05T11:08:07.081Z,65.93
2022-10-05T11:09:17.348Z,66.53
2022-10-05T11:10:26.030Z,66.13
2022-10-05T11:12:05.021Z,66.11
2022-10-05T11:13:25.562Z,66.37
2022-10-05T11:15:05.197Z,66.62
2022-10-05T11:16:18.740Z,66.98
2022-10-05T11:17:58.611Z,68.62
2022-10-05T11:19:24.865Z,68.93
2022-10-05T11:20:42.736Z,68.21
2022-10-05T11:22:00.245Z,68.36
2022-10-05T11:23:27.672Z,68.17
2022-10-05T11:24:50.520Z,67.68
2022-10-05T11:26:09.533Z,67.21
2022-10-05T11:27:29.258Z,67.83
2022-10-05T11:28:42.435Z,66.59
2022-10-05T11:29:59.623Z,66.63
2022-10-05T11:31:10.080Z,67.18
2022-10-05T11:32:46.880Z,67.66
2022-10-05T11:34:13.423Z,67.02
2022-10-05T11:35:33.394Z,65.94
2022-10-05T11:37:02.169Z,66.30
2022-10-05T11:38:31.487Z,66.92
2022-10-05T11:40:15.116Z,67.12
2022-10-05T11:41:36.294Z,67.18
2022-10-05T11:43:06.751Z,66.91
2022-10-05T11:44:50.858Z,66.52
2022-10-05T11:46:17.205Z,66.53
2022-10-05T11:47:27.842Z,66.83
2022-10-05T11:49:04.122Z,66.17
2022-10-05T11:50:41.338Z,65.84
2022-10-05T11:51:52.730Z,64.57
2022-10-05T11:53:00.336Z,65.11
2022-10-05T11:54:27.133Z,65.10
2022-10-05T11:55:40.594Z,65.89
2022-10-05T11:56:50.714Z,65.45
2022-10-05T11:58:13.221Z,64.96
2022-10-05T11:59:30.703Z,64.98
2022-10-05T12:00:44.228Z,65.48
2022-10-05T12:01:57.288Z,66.03
2022-10-05T12:03:15.579Z,66.40
2022-10-05T12:04:23.985Z,66.05
2022-10-05T12:05:53.728Z,65.04
2022-10-05T12:07:07.938Z,64.80
2022-10-05T12:08:34.314Z,63.58
2022-10-05T12:10:13.370Z,63.71
2022-10-05T12:11:42.954Z,62.95
2022-10-05T12:13:08.755Z,63.55
2022-10-05T12:14:20.169Z,64.41
2022-10-05T12:16:05.931Z,64.50
2022-10-05T12:17:22.364Z,63.56
2022-10-05T12:18:30.299Z,64.11
2022-10-05T12:19:41.503Z,64.16
2022-10-05T12:21:02.075Z,64.82
2022-10-05T12:22:27.287Z,64.74
2022-10-05T12:23:39.999Z,65.00
2022-10-05T12:25:15.921Z,64.53
2022-10-05T12:26:26.123Z,63.84
2022-10-05T12:27:34.766Z,63.46
2022-10-05T12:28:49.952Z,63.81
2022-10-05T12:30:02.716Z,63.91
2022-10-05T12:31:30.455Z,64.26
2022-10-05T12:32:59.520Z,63.26
2022-10-05T12:34:32.062Z,61.98
2022-10-05T12:35:52.556Z,62.44
2022-10-05T12:37:04.949Z,62.59
2022-10-05T12:38:25.576Z,63.02
2022-10-05T12:39:30.470Z,62.07
2022-10-05T12:40:45.382Z,62.41
2022-10-05T12:42:29.899Z,61.75
2022-10-05T12:44:02.474Z,61.77
2022-10-05T12:45:28.614Z,62.28
2022-10-05T12:46:44.951Z,61.50
2022-10-05T12:48:25.152Z,61.24
2022-10-05T12:49:45.327Z,61.35
2022-10-05T12:50:54.959Z,61.52
2022-10-05T12:52:05.762Z,62.09
2022-10-05T12:53:48.396Z,61.27
2022-10-05T12:55:03.501Z,61.09
2022-10-05T12:56:09.930Z,60.78
2022-10-05T12:57:26.917Z,60.47
2022-10-05T12:58:48.736Z,61.26
2022-10-05T13:00:05.182Z,59.92
2022-10-05T13:01:18.515Z,58.93
2022-10-05T13:02:53.229Z,59.50
2022-10-05T13:04:06.864Z,60.11
2022-10-05T13:05:11.373Z,60.56
2022-10-05T13:06:32.808Z,59.09
2022-10-05T13:07:43.220Z,59.22
2022-10-05T13:08:59.370Z,58.97
2022-10-05T13:10:23.154Z,58.48
2022-10-05T13:11:36.124Z,58.34
2022-10-05T13:12:48.672Z,57.80
2022-10-05T13:14:04.151Z,57.95
2022-10-05T13:15:12.599Z,57.68
2022-10-05T13:16:45.755Z,57.43
2022-10-05T13:17:57.464Z,57.32
2022-10-05T13:19:13.977Z,57.73
2022-10-05T13:20:29.952Z,57.40
2022-10-05T13:22:13.017Z,57.84
2022-10-05T13:23:24.656Z,57.91
2022-10-05T13:24:31.261Z,58.14
2022-10-05T13:25:37.494Z,58.86
2022-10-05T13:26:46.242Z,58.44
2022-10-05T13:27:58.889Z,57.62
2022-10-05T13:29:26.997Z,56.71
2022-10-05T13:30:29.071Z,56.05
2022-10-05T13:31:42.389Z,55.55
2022-10-05T13:32:50.259Z,55.66
2022-10-05T13:34:03.888Z,55.91
2022-10-05T13:35:17.968Z,56.03
2022-10-05T13:36:35.844Z,56.79
2022-10-05T13:37:48.684Z,56.28
2022-10-05T13:39:00.574Z,56.23
2022-10-05T13:40:15.030Z,56.22
2022-10-05T13:41:49.982Z,54.92
2022-10-05T13:43:32.320Z,55.34
2022-10-05T13:44:42.495Z,55.93
2022-10-05T13:45:57.497Z,56.26
2022-10-05T13:47:05.690Z,56.53
2022-10-05T13:48:12.917Z,55.94
2022-10-05T13:49:23.415Z,55.80
2022-10-05T13:50:35.797Z,55.26
2022-10-05T13:51:50.025Z,55.33
2022-10-05T13:53:18.504Z,55.39
2022-10-05T13:54:38.338Z,54.78
2022-10-05T13:55:42.452Z,53.73
2022-10-05T13:56:48.515Z,54.16
2022-10-05T13:58:06.035Z,55.44
2022-10-05T13:59:33.193Z,55.53
2022-10-05T14:00:46.831Z,54.84
2022-10-05T14:02:00.236Z,54.14
2022-10-05T14:03:02.064Z,54.16
2022-10-05T14:04:05.943Z,54.23
2022-10-05T14:05:21.053Z,54.20
2022-10-05T14:06:30.666Z,54.79
2022-10-05T14:07:34.998Z,56.18
2022-10-05T14:08:47.968Z,55.00
2022-10-05T14:09:52.559Z,54.52
2022-10-05T14:10:56.061Z,55.04
2022-10-05T14:12:18.696Z,55.59
2022-10-05T14:13:33.657Z,55.85
2022-10-05T14:14:52.245Z,55.12
2022-10-05T14:16:12.143Z,54.63
2022-10-05T14:17:38.087Z,55.28
2022-10-05T14:19:05.569Z,56.36
2022-10-05T14:20:26.227Z,55.84
2022-10-05T14:21:42.558Z,56.01
2022-10-05T14:22:49.124Z,56.35
2022-10-05T14:23:52.066Z,57.11
2022-10-05T14:25:14.022Z,57.11
2022-10-05T14:26:26.196Z,57.70
2022-10-05T14:27:47.839Z,57.16
2022-10-05T14:29:17.598Z,56.25
2022-10-05T14:30:29.372Z,57.09
2022-10-05T14:31:35.557Z,57.00
2022-10-05T14:33:12.491Z,57.16
2022-10-05T14:34:29.357Z,57.67
2022-10-05T14:35:32.036Z,56.66
2022-10-05T14:36:40.248Z,57.33
2022-10-05T14:37:47.373Z,56.36
2022-10-05T14:38:55.772Z,56.49
2022-10-05T14:40:03.412Z,55.54
2022-10-05T14:41:19.724Z,55.49
2022-10-05T14:42:27.236Z,55.63
2022-10-05T14:43:29.766Z,56.07
2022-10-05T14:46:03.079Z,57.43
2022-10-05T14:47:22.756Z,56.49
2022-10-05T14:48:28.033Z,55.60
2022-10-05T14:49:36.067Z,56.25
2022-10-05T14:50:53.283Z,56.41
2022-10-05T14:51:56.308Z,56.53
2022-10-05T14:53:14.092Z,56.77
2022-10-05T14:54:27.719Z,57.76
2022-10-05T14:55:39.273Z,58.20
2022-10-05T14:56:59.065Z,58.59
2022-10-05T14:58:49.590Z,57.55
2022-10-05T15:00:17.924Z,57.46
2022-10-05T15:01:35.828Z,57.49
2022-10-05T15:02:58.588Z,57.75
2022-10-05T15:04:37.664Z,57.23
2022-10-05T15:05:50.455Z,56.42
2022-10-05T15:07:12.398Z,56.59
2022-10-05T15:08:38.987Z,57.52
2022-10-05T15:09:49.703Z,57.37
2022-10-05T15:11:04.919Z,57.33
2022-10-05T15:12:07.246Z,57.10
2022-10-05T15:13:21.898Z,57.01
2022-10-05T15:14:29.659Z,57.18
2022-10-05T15:15:38.795Z,56.72
2022-10-05T15:16:42.109Z,56.53
2022-10-05T15:17:52.505Z,56.73
2022-10-05T15:18:53.894Z,56.85
2022-10-05T15:20:17.655Z,57.54
2022-10-05T15:21:39.428Z,57.73
2022-10-05T15:23:07.350Z,58.37
2022-10-05T15:24:17.307Z,57.37
2022-10-05T15:25:40.735Z,57.93
2022-10-05T15:26:49.031Z,58.25
2022-10-05T15:28:03.910Z,58.17
2022-10-05T15:29:17.718Z,58.79
2022-10-05T15:30:19.685Z,59.59
2022-10-05T15:31:32.316Z,59.64
2022-10-05T15:32:55.395Z,59.81
2022-10-05T15:34:30.470Z,60.44
2022-10-05T15:35:45.523Z,59.49
2022-10-05T15:36:52.495Z,58.74
2022-10-05T15:38:12.056Z,58.55
2022-10-05T15:39:37.138Z,57.75
2022-10-05T15:40:59.784Z,57.76
2022-10-05T15:42:06.793Z,56.99
2022-10-05T15:43:18.867Z,57.99
2022-10-05T15:44:43.662Z,57.83
2022-10-05T15:46:10.569Z,57.89
2022-10-05T15:47:35.056Z,57.35
2022-10-05T15:49:14.643Z,57.26
2022-10-05T15:50:26.534Z,57.66
2022-10-05T15:51:40.716Z,57.66
2022-10-05T15:53:20.914Z,57.69
2022-10-05T15:54:50.216Z,57.79
2022-10-05T15:55:51.742Z,57.96
2022-10-05T15:57:07.416Z,58.07
2022-10-05T15:58:21.120Z,57.97
2022-10-05T15:59:49.553Z,57.89
2022-10-05T16:01:23.343Z,58.27
2022-10-05T16:02:33.115Z,58.51
2022-10-05T16:03:48.676Z,58.29
2022-10-05T16:05:07.539Z,58.37
2022-10-05T16:06:33.723Z,58.42
2022-10-05T16:08:10.661Z,58.41
2022-10-05T16:09:12.077Z,58.57
2022-10-05T16:10:24.228Z,58.72
2022-10-05T16:11:36.756Z,58.80
2022-10-05T16:13:06.537Z,58.85
2022-10-05T16:14:23.045Z,58.96
2022-10-05T16:15:33.719Z,59.03
2022-10-05T16:16:46.173Z,59.23
2022-10-05T16:18:09.190Z,59.35
2022-10-05T16:19:29.531Z,59.89
2022-10-05T16:20:46.171Z,59.89
2022-10-05T16:22:03.588Z,60.12
2022-10-05T16:23:13.148Z,60.30
2022-10-05T16:24:49.924Z,60.56
2022-10-05T16:26:21.336Z,61.12
2022-10-05T16:27:32.781Z,60.74
2022-10-05T16:28:34.159Z,61.40
2022-10-05T16:30:00.841Z,61.78
2022-10-05T16:31:06.708Z,61.69
2022-10-05T16:32:19.270Z,61.86
2022-10-05T16:33:44.482Z,62.38
2022-10-05T16:35:12.029Z,62.80
2022-10-05T16:36:31.875Z,62.94
2022-10-05T16:37:42.047Z,63.06
2022-10-05T16:38:59.160Z,63.09
2022-10-05T16:40:12.863Z,63.20
2022-10-05T16:41:32.885Z,63.24
2022-10-05T16:42:42.069Z,63.32
2022-10-05T16:44:12.236Z,63.36
2022-10-05T16:45:24.417Z,63.34
2022-10-05T16:46:52.649Z,63.64
2022-10-05T16:48:08.395Z,63.78
2022-10-05T16:49:36.708Z,63.90
2022-10-05T16:51:05.424Z,63.77